sensor_id;sensor_type;location;lat;lon;timestamp;pressure;altitude;pressure_sealevel;temperature;humidity
10176;BME280;18221;38.704;0.152;2022-12-31T00:10:03;99788.50;;;19.69;27.85
10176;BME280;18221;38.704;0.152;2022-12-31T00:12:31;99786.13;;;19.75;28.07
10176;BME280;18221;38.704;0.152;2022-12-31T00:15:01;99782.88;;;19.79;27.72
10176;BME280;18221;38.704;0.152;2022-12-31T00:17:29;99786.41;;;19.80;27.63
10176;BME280;18221;38.704;0.152;2022-12-31T00:19:57;99780.06;;;19.73;27.61
10176;BME280;18221;38.704;0.152;2022-12-31T00:22:26;99793.25;;;19.67;28.15
10176;BME280;18221;38.704;0.152;2022-12-31T00:24:54;99783.66;;;19.65;28.01
10176;BME280;18221;38.704;0.152;2022-12-31T00:27:22;99779.78;;;19.67;29.54
10176;BME280;18221;38.704;0.152;2022-12-31T00:29:51;99782.81;;;19.64;28.83
10176;BME280;18221;38.704;0.152;2022-12-31T00:32:20;99780.84;;;19.58;28.34
10176;BME280;18221;38.704;0.152;2022-12-31T00:34:49;99778.13;;;19.58;28.19
10176;BME280;18221;38.704;0.152;2022-12-31T00:37:17;99777.19;;;19.74;28.17
10176;BME280;18221;38.704;0.152;2022-12-31T00:39:45;99779.66;;;19.84;27.84
10176;BME280;18221;38.704;0.152;2022-12-31T00:42:13;99780.53;;;19.99;27.92
10176;BME280;18221;38.704;0.152;2022-12-31T00:44:41;99784.19;;;20.06;27.30
10176;BME280;18221;38.704;0.152;2022-12-31T00:47:10;99774.13;;;20.00;27.01
10176;BME280;18221;38.704;0.152;2022-12-31T00:49:40;99780.31;;;19.86;27.38
10176;BME280;18221;38.704;0.152;2022-12-31T00:52:08;99787.00;;;19.90;27.31
10176;BME280;18221;38.704;0.152;2022-12-31T00:54:39;99790.84;;;19.73;27.80
10176;BME280;18221;38.704;0.152;2022-12-31T00:57:07;99788.00;;;19.66;28.11
10176;BME280;18221;38.704;0.152;2022-12-31T00:59:36;99788.56;;;19.61;28.36
10176;BME280;18221;38.704;0.152;2022-12-31T01:02:04;99791.59;;;19.58;28.42
10176;BME280;18221;38.704;0.152;2022-12-31T01:04:32;99788.50;;;19.47;28.50
10176;BME280;18221;38.704;0.152;2022-12-31T01:07:02;99779.06;;;19.43;28.38
10176;BME280;18221;38.704;0.152;2022-12-31T01:09:30;99777.41;;;19.42;28.24
10176;BME280;18221;38.704;0.152;2022-12-31T01:11:59;99774.88;;;19.40;29.01
10176;BME280;18221;38.704;0.152;2022-12-31T01:14:27;99775.59;;;19.34;29.13
10176;BME280;18221;38.704;0.152;2022-12-31T01:16:58;99775.75;;;19.33;28.88
10176;BME280;18221;38.704;0.152;2022-12-31T01:19:28;99778.78;;;19.30;28.65
10176;BME280;18221;38.704;0.152;2022-12-31T01:21:57;99779.81;;;19.29;28.62
10176;BME280;18221;38.704;0.152;2022-12-31T01:24:27;99780.66;;;19.29;28.32
10176;BME280;18221;38.704;0.152;2022-12-31T01:26:55;99779.63;;;19.30;28.79
10176;BME280;18221;38.704;0.152;2022-12-31T01:29:24;99783.97;;;19.47;28.61
10176;BME280;18221;38.704;0.152;2022-12-31T01:31:52;99779.44;;;19.40;28.46
10176;BME280;18221;38.704;0.152;2022-12-31T01:34:21;99770.53;;;19.31;28.31
10176;BME280;18221;38.704;0.152;2022-12-31T01:36:49;99765.47;;;19.36;28.56
10176;BME280;18221;38.704;0.152;2022-12-31T01:39:17;99780.75;;;19.44;28.11
10176;BME280;18221;38.704;0.152;2022-12-31T01:41:47;99775.41;;;19.36;28.40
10176;BME280;18221;38.704;0.152;2022-12-31T01:44:57;99776.25;;;19.36;28.27
10176;BME280;18221;38.704;0.152;2022-12-31T01:47:35;99777.94;;;19.37;28.54
10176;BME280;18221;38.704;0.152;2022-12-31T01:50:12;99777.56;;;19.40;28.54
10176;BME280;18221;38.704;0.152;2022-12-31T01:52:45;99784.47;;;19.43;28.61
10176;BME280;18221;38.704;0.152;2022-12-31T01:55:21;99778.78;;;19.38;29.06
10176;BME280;18221;38.704;0.152;2022-12-31T01:58:02;99775.78;;;19.25;29.41
10176;BME280;18221;38.704;0.152;2022-12-31T02:00:32;99770.94;;;19.20;29.00
10176;BME280;18221;38.704;0.152;2022-12-31T02:03:02;99764.53;;;19.21;28.97
10176;BME280;18221;38.704;0.152;2022-12-31T02:05:37;99777.31;;;19.19;28.82
10176;BME280;18221;38.704;0.152;2022-12-31T02:08:09;99777.50;;;19.18;28.84
10176;BME280;18221;38.704;0.152;2022-12-31T02:10:38;99780.00;;;19.19;28.83
10176;BME280;18221;38.704;0.152;2022-12-31T02:13:08;99777.50;;;19.18;29.11
10176;BME280;18221;38.704;0.152;2022-12-31T02:15:49;99773.94;;;19.25;28.92
10176;BME280;18221;38.704;0.152;2022-12-31T02:18:29;99770.94;;;19.20;28.94
10176;BME280;18221;38.704;0.152;2022-12-31T02:21:33;99779.84;;;19.21;28.73
10176;BME280;18221;38.704;0.152;2022-12-31T02:27:52;99774.47;;;19.21;28.85
10176;BME280;18221;38.704;0.152;2022-12-31T02:30:31;99770.59;;;19.23;28.81
10176;BME280;18221;38.704;0.152;2022-12-31T02:33:20;99770.91;;;19.28;28.77
10176;BME280;18221;38.704;0.152;2022-12-31T02:35:56;99781.16;;;19.25;29.23
10176;BME280;18221;38.704;0.152;2022-12-31T02:38:30;99778.69;;;19.15;29.29
10176;BME280;18221;38.704;0.152;2022-12-31T02:41:00;99775.16;;;19.15;28.53
10176;BME280;18221;38.704;0.152;2022-12-31T02:43:29;99777.34;;;19.11;28.69
10176;BME280;18221;38.704;0.152;2022-12-31T02:46:09;99770.97;;;19.12;28.69
10176;BME280;18221;38.704;0.152;2022-12-31T02:48:47;99779.72;;;19.14;28.75
10176;BME280;18221;38.704;0.152;2022-12-31T02:51:33;99775.66;;;19.18;28.54
10176;BME280;18221;38.704;0.152;2022-12-31T02:54:26;99775.00;;;19.16;28.51
10176;BME280;18221;38.704;0.152;2022-12-31T02:57:07;99767.94;;;19.15;28.60
10176;BME280;18221;38.704;0.152;2022-12-31T02:59:43;99769.78;;;19.15;28.61
10176;BME280;18221;38.704;0.152;2022-12-31T03:02:39;99769.97;;;19.13;28.62
10176;BME280;18221;38.704;0.152;2022-12-31T03:05:10;99770.81;;;19.14;28.33
10176;BME280;18221;38.704;0.152;2022-12-31T03:07:42;99761.91;;;19.13;28.54
10176;BME280;18221;38.704;0.152;2022-12-31T03:10:11;99771.81;;;19.13;28.52
10176;BME280;18221;38.704;0.152;2022-12-31T03:12:42;99769.28;;;19.11;28.39
10176;BME280;18221;38.704;0.152;2022-12-31T03:15:17;99770.81;;;19.14;28.36
10176;BME280;18221;38.704;0.152;2022-12-31T03:17:58;99763.25;;;19.09;28.56
10176;BME280;18221;38.704;0.152;2022-12-31T03:20:31;99765.44;;;19.14;28.29
10176;BME280;18221;38.704;0.152;2022-12-31T03:23:21;99761.41;;;19.09;28.27
10176;BME280;18221;38.704;0.152;2022-12-31T03:25:50;99756.56;;;19.05;28.36
10176;BME280;18221;38.704;0.152;2022-12-31T03:28:21;99760.59;;;19.01;28.28
10176;BME280;18221;38.704;0.152;2022-12-31T03:30:52;99753.69;;;18.98;29.01
10176;BME280;18221;38.704;0.152;2022-12-31T03:33:24;99760.78;;;18.99;28.60
10176;BME280;18221;38.704;0.152;2022-12-31T03:35:53;99761.78;;;18.98;28.75
10176;BME280;18221;38.704;0.152;2022-12-31T03:38:21;99762.31;;;18.94;29.38
10176;BME280;18221;38.704;0.152;2022-12-31T03:40:52;99751.03;;;18.90;29.21
10176;BME280;18221;38.704;0.152;2022-12-31T03:43:21;99751.88;;;18.91;29.08
10176;BME280;18221;38.704;0.152;2022-12-31T03:45:49;99744.66;;;18.91;28.95
10176;BME280;18221;38.704;0.152;2022-12-31T03:48:18;99752.06;;;18.89;28.93
10176;BME280;18221;38.704;0.152;2022-12-31T03:50:49;99748.72;;;18.87;29.06
10176;BME280;18221;38.704;0.152;2022-12-31T03:53:18;99751.56;;;18.86;29.20
10176;BME280;18221;38.704;0.152;2022-12-31T03:55:50;99749.56;;;18.80;29.90
10176;BME280;18221;38.704;0.152;2022-12-31T03:58:19;99750.25;;;18.82;30.32
10176;BME280;18221;38.704;0.152;2022-12-31T04:00:47;99745.88;;;18.81;29.60
10176;BME280;18221;38.704;0.152;2022-12-31T04:03:16;99743.38;;;18.79;30.51
10176;BME280;18221;38.704;0.152;2022-12-31T04:05:44;99740.47;;;18.89;32.14
10176;BME280;18221;38.704;0.152;2022-12-31T04:08:20;99741.44;;;18.96;33.10
10176;BME280;18221;38.704;0.152;2022-12-31T04:10:48;99740.25;;;18.98;33.04
10176;BME280;18221;38.704;0.152;2022-12-31T04:13:16;99743.25;;;19.03;33.12
10176;BME280;18221;38.704;0.152;2022-12-31T04:15:44;99736.00;;;19.04;33.29
10176;BME280;18221;38.704;0.152;2022-12-31T04:18:15;99732.66;;;19.02;32.65
10176;BME280;18221;38.704;0.152;2022-12-31T04:20:43;99731.16;;;18.99;32.50
10176;BME280;18221;38.704;0.152;2022-12-31T04:23:12;99729.31;;;19.00;33.03
10176;BME280;18221;38.704;0.152;2022-12-31T04:25:41;99729.31;;;19.00;33.27
10176;BME280;18221;38.704;0.152;2022-12-31T04:28:09;99733.00;;;18.99;33.16
10176;BME280;18221;38.704;0.152;2022-12-31T04:30:38;99731.16;;;18.99;33.25
10176;BME280;18221;38.704;0.152;2022-12-31T04:33:06;99727.81;;;18.97;32.98
10176;BME280;18221;38.704;0.152;2022-12-31T04:35:34;99729.66;;;18.97;32.87
10176;BME280;18221;38.704;0.152;2022-12-31T04:38:03;99728.28;;;19.01;33.21
10176;BME280;18221;38.704;0.152;2022-12-31T04:40:31;99725.59;;;19.01;33.04
10176;BME280;18221;38.704;0.152;2022-12-31T04:43:01;99723.41;;;19.04;33.36
10176;BME280;18221;38.704;0.152;2022-12-31T04:45:29;99719.31;;;19.08;33.26
10176;BME280;18221;38.704;0.152;2022-12-31T04:47:57;99718.50;;;19.08;32.63
10176;BME280;18221;38.704;0.152;2022-12-31T04:50:25;99720.81;;;19.11;32.28
10176;BME280;18221;38.704;0.152;2022-12-31T04:52:54;99721.38;;;19.06;31.94
10176;BME280;18221;38.704;0.152;2022-12-31T04:55:22;99716.31;;;19.03;32.04
10176;BME280;18221;38.704;0.152;2022-12-31T04:57:50;99715.81;;;19.08;31.98
10176;BME280;18221;38.704;0.152;2022-12-31T05:00:20;99716.81;;;19.07;32.04
10176;BME280;18221;38.704;0.152;2022-12-31T05:02:48;99715.81;;;19.08;32.07
10176;BME280;18221;38.704;0.152;2022-12-31T05:05:17;99718.81;;;19.13;31.96
10176;BME280;18221;38.704;0.152;2022-12-31T05:07:45;99718.81;;;19.13;31.93
10176;BME280;18221;38.704;0.152;2022-12-31T05:10:14;99724.97;;;19.22;31.84
10176;BME280;18221;38.704;0.152;2022-12-31T05:12:42;99718.31;;;19.40;31.68
10176;BME280;18221;38.704;0.152;2022-12-31T05:15:10;99714.84;;;19.32;32.73
10176;BME280;18221;38.704;0.152;2022-12-31T05:17:40;99720.28;;;19.24;33.84
10176;BME280;18221;38.704;0.152;2022-12-31T05:20:09;99722.16;;;19.15;34.21
10176;BME280;18221;38.704;0.152;2022-12-31T05:22:37;99720.16;;;19.09;34.80
10176;BME280;18221;38.704;0.152;2022-12-31T05:25:07;99721.16;;;19.16;34.76
10176;BME280;18221;38.704;0.152;2022-12-31T05:27:35;99719.78;;;19.20;35.03
10176;BME280;18221;38.704;0.152;2022-12-31T05:30:05;99723.53;;;19.11;35.43
10176;BME280;18221;38.704;0.152;2022-12-31T05:32:34;99720.16;;;19.09;35.44
10176;BME280;18221;38.704;0.152;2022-12-31T05:35:05;99722.16;;;19.15;35.21
10176;BME280;18221;38.704;0.152;2022-12-31T05:37:34;99723.06;;;19.30;35.19
10176;BME280;18221;38.704;0.152;2022-12-31T05:40:03;99724.47;;;19.26;35.81
10176;BME280;18221;38.704;0.152;2022-12-31T05:42:31;99729.50;;;19.29;36.11
10176;BME280;18221;38.704;0.152;2022-12-31T05:44:59;99727.50;;;19.23;36.38
10176;BME280;18221;38.704;0.152;2022-12-31T05:47:27;99736.25;;;19.25;36.47
10176;BME280;18221;38.704;0.152;2022-12-31T05:49:55;99738.63;;;19.20;36.60
10176;BME280;18221;38.704;0.152;2022-12-31T05:52:25;99737.66;;;19.13;36.84
10176;BME280;18221;38.704;0.152;2022-12-31T05:54:54;99737.31;;;19.16;37.13
10176;BME280;18221;38.704;0.152;2022-12-31T05:57:22;99742.91;;;19.06;37.82
10176;BME280;18221;38.704;0.152;2022-12-31T05:59:50;99750.31;;;19.04;37.70
10176;BME280;18221;38.704;0.152;2022-12-31T06:02:19;99759.31;;;18.89;37.25
10176;BME280;18221;38.704;0.152;2022-12-31T06:04:47;99748.75;;;18.79;37.49
10176;BME280;18221;38.704;0.152;2022-12-31T06:07:15;99750.25;;;18.82;37.19
10176;BME280;18221;38.704;0.152;2022-12-31T06:09:46;99755.47;;;18.75;36.25
10176;BME280;18221;38.704;0.152;2022-12-31T06:12:14;99764.59;;;18.74;35.84
10176;BME280;18221;38.704;0.152;2022-12-31T06:14:43;99760.03;;;18.67;35.79
10176;BME280;18221;38.704;0.152;2022-12-31T06:17:11;99757.50;;;18.73;35.28
10176;BME280;18221;38.704;0.152;2022-12-31T06:19:39;99762.41;;;18.70;34.20
10176;BME280;18221;38.704;0.152;2022-12-31T06:22:08;99761.41;;;18.71;33.94
10176;BME280;18221;38.704;0.152;2022-12-31T06:24:36;99764.94;;;18.63;33.71
10176;BME280;18221;38.704;0.152;2022-12-31T06:27:05;99769.16;;;18.58;33.74
10176;BME280;18221;38.704;0.152;2022-12-31T06:29:34;99766.13;;;18.69;34.60
10176;BME280;18221;38.704;0.152;2022-12-31T06:32:02;99757.34;;;18.67;36.61
10176;BME280;18221;38.704;0.152;2022-12-31T06:34:30;99757.84;;;18.70;38.57
10176;BME280;18221;38.704;0.152;2022-12-31T06:36:59;99766.28;;;18.67;39.66
10176;BME280;18221;38.704;0.152;2022-12-31T06:39:27;99760.03;;;18.67;40.02
10176;BME280;18221;38.704;0.152;2022-12-31T06:41:55;99751.66;;;18.62;40.38
10176;BME280;18221;38.704;0.152;2022-12-31T06:44:25;99753.53;;;18.61;40.82
10176;BME280;18221;38.704;0.152;2022-12-31T06:46:53;99753.69;;;18.60;41.00
10176;BME280;18221;38.704;0.152;2022-12-31T06:49:22;99744.63;;;18.53;40.43
10176;BME280;18221;38.704;0.152;2022-12-31T06:51:50;99758.06;;;18.44;39.45
10176;BME280;18221;38.704;0.152;2022-12-31T06:54:18;99754.41;;;18.37;38.93
10176;BME280;18221;38.704;0.152;2022-12-31T06:56:47;99746.47;;;18.44;38.65
10176;BME280;18221;38.704;0.152;2022-12-31T06:59:28;99751.19;;;18.42;37.89
10176;BME280;18221;38.704;0.152;2022-12-31T07:02:24;99754.22;;;18.39;36.96
10176;BME280;18221;38.704;0.152;2022-12-31T07:05:30;99757.56;;;18.41;36.12
10176;BME280;18221;38.704;0.152;2022-12-31T07:08:22;99756.59;;;18.34;35.49
10176;BME280;18221;38.704;0.152;2022-12-31T07:11:03;99752.38;;;18.31;34.40
10176;BME280;18221;38.704;0.152;2022-12-31T07:14:22;99760.09;;;18.42;33.64
10176;BME280;18221;38.704;0.152;2022-12-31T07:17:03;99758.59;;;18.40;34.13
10176;BME280;18221;38.704;0.152;2022-12-31T07:19:47;99760.56;;;18.46;34.60
10176;BME280;18221;38.704;0.152;2022-12-31T07:22:20;99758.75;;;18.55;34.22
10176;BME280;18221;38.704;0.152;2022-12-31T07:24:49;99750.03;;;18.53;34.47
10176;BME280;18221;38.704;0.152;2022-12-31T07:30:40;99760.69;;;18.85;33.21
10176;BME280;18221;38.704;0.152;2022-12-31T07:33:48;99764.13;;;19.01;32.22
10176;BME280;18221;38.704;0.152;2022-12-31T07:36:40;99765.69;;;18.88;32.55
10176;BME280;18221;38.704;0.152;2022-12-31T07:39:20;99764.78;;;19.03;31.99
10176;BME280;18221;38.704;0.152;2022-12-31T07:42:00;99760.50;;;19.17;31.83
10176;BME280;18221;38.704;0.152;2022-12-31T07:44:53;99765.44;;;19.14;31.34
10176;BME280;18221;38.704;0.152;2022-12-31T07:47:27;99772.84;;;19.03;31.47
10176;BME280;18221;38.704;0.152;2022-12-31T07:49:58;99779.72;;;19.14;31.48
10176;BME280;18221;38.704;0.152;2022-12-31T07:52:28;99784.94;;;19.16;31.14
10176;BME280;18221;38.704;0.152;2022-12-31T07:54:56;99786.13;;;19.13;31.65
10176;BME280;18221;38.704;0.152;2022-12-31T07:57:32;99792.47;;;19.20;31.26
10176;BME280;18221;38.704;0.152;2022-12-31T08:00:10;99799.56;;;19.21;31.37
10176;BME280;18221;38.704;0.152;2022-12-31T08:03:09;99798.25;;;19.09;30.82
10176;BME280;18221;38.704;0.152;2022-12-31T08:05:51;99798.44;;;19.07;31.26
10176;BME280;18221;38.704;0.152;2022-12-31T08:08:35;99799.63;;;19.05;31.63
10176;BME280;18221;38.704;0.152;2022-12-31T08:11:17;99809.66;;;19.11;31.18
10176;BME280;18221;38.704;0.152;2022-12-31T08:13:51;99803.50;;;19.02;31.57
10176;BME280;18221;38.704;0.152;2022-12-31T08:16:22;99799.31;;;19.00;30.89
10176;BME280;18221;38.704;0.152;2022-12-31T08:18:51;99796.28;;;19.03;30.90
10176;BME280;18221;38.704;0.152;2022-12-31T08:21:36;99790.56;;;18.98;30.61
10176;BME280;18221;38.704;0.152;2022-12-31T08:24:15;99789.03;;;18.95;30.66
10176;BME280;18221;38.704;0.152;2022-12-31T08:27:02;99790.81;;;19.11;30.92
10176;BME280;18221;38.704;0.152;2022-12-31T08:29:43;99792.59;;;19.27;31.56
10176;BME280;18221;38.704;0.152;2022-12-31T08:32:21;99802.41;;;19.20;32.04
10176;BME280;18221;38.704;0.152;2022-12-31T08:35:03;99806.59;;;19.22;32.42
10176;BME280;18221;38.704;0.152;2022-12-31T08:37:40;99809.59;;;19.27;32.40
10176;BME280;18221;38.704;0.152;2022-12-31T08:40:24;99798.16;;;19.25;32.83
10176;BME280;18221;38.704;0.152;2022-12-31T08:43:13;99810.78;;;19.25;32.98
10176;BME280;18221;38.704;0.152;2022-12-31T08:45:48;99817.03;;;19.25;33.22
10176;BME280;18221;38.704;0.152;2022-12-31T08:48:26;99820.38;;;19.27;34.00
10176;BME280;18221;38.704;0.152;2022-12-31T08:50:58;99820.25;;;19.21;34.78
10176;BME280;18221;38.704;0.152;2022-12-31T08:53:29;99819.41;;;19.20;35.16
10176;BME280;18221;38.704;0.152;2022-12-31T08:56:05;99823.78;;;19.21;35.40
10176;BME280;18221;38.704;0.152;2022-12-31T08:58:45;99831.44;;;19.40;35.26
10176;BME280;18221;38.704;0.152;2022-12-31T09:01:20;99840.44;;;19.55;34.97
10176;BME280;18221;38.704;0.152;2022-12-31T09:04:11;99846.19;;;19.60;35.38
10176;BME280;18221;38.704;0.152;2022-12-31T09:06:51;99845.16;;;19.61;35.97
10176;BME280;18221;38.704;0.152;2022-12-31T09:09:35;99842.75;;;19.66;35.97
10176;BME280;18221;38.704;0.152;2022-12-31T09:12:15;99849.47;;;19.70;35.73
10176;BME280;18221;38.704;0.152;2022-12-31T09:14:49;99849.78;;;19.76;35.33
10176;BME280;18221;38.704;0.152;2022-12-31T09:17:39;99864.88;;;19.85;34.78
10176;BME280;18221;38.704;0.152;2022-12-31T09:20:23;99872.97;;;19.85;34.86
10176;BME280;18221;38.704;0.152;2022-12-31T09:22:54;99875.00;;;19.83;34.66
10176;BME280;18221;38.704;0.152;2022-12-31T09:25:26;99867.56;;;19.85;34.14
10176;BME280;18221;38.704;0.152;2022-12-31T09:28:11;99875.66;;;19.85;32.81
10176;BME280;18221;38.704;0.152;2022-12-31T09:30:52;99876.06;;;19.73;32.87
10176;BME280;18221;38.704;0.152;2022-12-31T09:33:36;99879.53;;;19.82;32.42
10176;BME280;18221;38.704;0.152;2022-12-31T09:36:09;99877.75;;;19.97;32.17
10176;BME280;18221;38.704;0.152;2022-12-31T09:38:49;99879.59;;;20.05;32.35
10176;BME280;18221;38.704;0.152;2022-12-31T09:41:50;99888.94;;;20.17;32.51
10176;BME280;18221;38.704;0.152;2022-12-31T09:48:48;99897.00;;;20.25;31.61
10176;BME280;18221;38.704;0.152;2022-12-31T09:51:29;99893.59;;;20.23;32.46
10176;BME280;18221;38.704;0.152;2022-12-31T09:54:35;99888.19;;;20.00;33.45
10176;BME280;18221;38.704;0.152;2022-12-31T09:57:38;99895.47;;;20.22;32.05
10176;BME280;18221;38.704;0.152;2022-12-31T10:00:14;99902.38;;;20.25;31.70
10176;BME280;18221;38.704;0.152;2022-12-31T10:03:11;99908.06;;;20.30;32.67
10176;BME280;18221;38.704;0.152;2022-12-31T10:05:55;99901.78;;;20.38;32.70
10176;BME280;18221;38.704;0.152;2022-12-31T10:08:44;99909.97;;;20.44;33.23
10176;BME280;18221;38.704;0.152;2022-12-31T10:11:25;99894.22;;;20.33;33.36
10176;BME280;18221;38.704;0.152;2022-12-31T10:14:15;99898.44;;;20.36;31.41
10176;BME280;18221;38.704;0.152;2022-12-31T10:17:17;99903.84;;;20.50;31.83
10176;BME280;18221;38.704;0.152;2022-12-31T10:20:39;99904.16;;;20.55;32.60
10176;BME280;18221;38.704;0.152;2022-12-31T10:24:03;99900.44;;;20.56;31.70
10176;BME280;18221;38.704;0.152;2022-12-31T10:27:03;99900.38;;;20.64;32.01
10176;BME280;18221;38.704;0.152;2022-12-31T10:29:45;99899.78;;;20.54;31.84
10176;BME280;18221;38.704;0.152;2022-12-31T10:32:20;99894.63;;;20.67;32.65
10176;BME280;18221;38.704;0.152;2022-12-31T10:34:57;99900.75;;;20.76;32.72
10176;BME280;18221;38.704;0.152;2022-12-31T10:37:37;99889.22;;;20.82;33.16
10176;BME280;18221;38.704;0.152;2022-12-31T10:40:24;99887.19;;;20.84;33.04
10176;BME280;18221;38.704;0.152;2022-12-31T10:43:33;99885.97;;;20.86;33.24
10176;BME280;18221;38.704;0.152;2022-12-31T10:46:40;99880.66;;;20.78;33.93
10176;BME280;18221;38.704;0.152;2022-12-31T10:50:11;99876.38;;;20.84;33.40
10176;BME280;18221;38.704;0.152;2022-12-31T10:53:38;99861.22;;;20.83;32.54
10176;BME280;18221;38.704;0.152;2022-12-31T10:56:54;99859.25;;;20.77;31.75
10176;BME280;18221;38.704;0.152;2022-12-31T11:00:10;99860.66;;;20.87;32.92
10176;BME280;18221;38.704;0.152;2022-12-31T11:06:40;99849.75;;;20.81;33.38
10176;BME280;18221;38.704;0.152;2022-12-31T11:16:14;99833.59;;;20.96;33.90
10176;BME280;18221;38.704;0.152;2022-12-31T11:18:55;99825.56;;;21.02;32.58
10176;BME280;18221;38.704;0.152;2022-12-31T11:22:20;99817.41;;;21.10;30.40
10176;BME280;18221;38.704;0.152;2022-12-31T11:25:24;99824.19;;;21.21;29.53
10176;BME280;18221;38.704;0.152;2022-12-31T11:28:16;99820.91;;;21.25;30.73
10176;BME280;18221;38.704;0.152;2022-12-31T11:31:11;99817.00;;;21.28;31.05
10176;BME280;18221;38.704;0.152;2022-12-31T11:34:07;99812.53;;;21.35;31.70
10176;BME280;18221;38.704;0.152;2022-12-31T11:36:55;99814.88;;;21.23;31.36
10176;BME280;18221;38.704;0.152;2022-12-31T11:39:46;99820.38;;;21.30;31.94
10176;BME280;18221;38.704;0.152;2022-12-31T11:42:33;99809.25;;;21.25;34.18
10176;BME280;18221;38.704;0.152;2022-12-31T11:45:14;99809.16;;;21.33;35.72
10176;BME280;18221;38.704;0.152;2022-12-31T11:47:58;99809.00;;;21.34;37.34
10176;BME280;18221;38.704;0.152;2022-12-31T11:50:43;99802.94;;;21.32;37.66
10176;BME280;18221;38.704;0.152;2022-12-31T11:53:36;99797.88;;;21.44;37.86
10176;BME280;18221;38.704;0.152;2022-12-31T11:56:16;99791.63;;;21.43;39.12
10176;BME280;18221;38.704;0.152;2022-12-31T11:58:49;99790.97;;;21.41;38.85
10176;BME280;18221;38.704;0.152;2022-12-31T12:01:23;99785.41;;;21.43;38.62
10176;BME280;18221;38.704;0.152;2022-12-31T12:03:54;99784.84;;;21.33;40.09
10176;BME280;18221;38.704;0.152;2022-12-31T12:06:28;99781.66;;;21.44;39.74
10176;BME280;18221;38.704;0.152;2022-12-31T12:09:05;99782.13;;;21.33;38.97
10176;BME280;18221;38.704;0.152;2022-12-31T12:11:37;99775.16;;;21.38;39.18
10176;BME280;18221;38.704;0.152;2022-12-31T12:14:19;99765.94;;;21.33;38.27
10176;BME280;18221;38.704;0.152;2022-12-31T12:16:53;99763.22;;;21.33;37.72
10176;BME280;18221;38.704;0.152;2022-12-31T12:19:26;99757.28;;;21.23;36.60
10176;BME280;18221;38.704;0.152;2022-12-31T12:22:08;99762.53;;;21.24;37.86
10176;BME280;18221;38.704;0.152;2022-12-31T12:24:37;99754.69;;;21.29;39.34
10176;BME280;18221;38.704;0.152;2022-12-31T12:27:21;99757.66;;;21.34;39.53
10176;BME280;18221;38.704;0.152;2022-12-31T12:29:50;99755.38;;;21.38;39.05
10176;BME280;18221;38.704;0.152;2022-12-31T12:32:21;99752.03;;;21.36;38.65
10176;BME280;18221;38.704;0.152;2022-12-31T12:34:51;99750.44;;;21.41;38.05
10176;BME280;18221;38.704;0.152;2022-12-31T12:37:29;99742.50;;;21.54;37.88
10176;BME280;18221;38.704;0.152;2022-12-31T12:40:02;99747.72;;;21.56;38.13
10176;BME280;18221;38.704;0.152;2022-12-31T12:42:32;99738.66;;;21.64;36.91
10176;BME280;18221;38.704;0.152;2022-12-31T12:45:04;99731.69;;;21.54;36.62
10176;BME280;18221;38.704;0.152;2022-12-31T12:47:35;99734.00;;;21.58;36.39
10176;BME280;18221;38.704;0.152;2022-12-31T12:50:04;99736.13;;;21.62;36.53
10176;BME280;18221;38.704;0.152;2022-12-31T12:52:58;99739.16;;;21.74;36.42
10176;BME280;18221;38.704;0.152;2022-12-31T12:55:40;99743.50;;;21.75;37.49
10176;BME280;18221;38.704;0.152;2022-12-31T12:58:30;99730.31;;;21.65;32.72
10176;BME280;18221;38.704;0.152;2022-12-31T13:01:09;99730.19;;;21.73;31.85
10176;BME280;18221;38.704;0.152;2022-12-31T13:04:19;99730.47;;;21.78;30.74
10176;BME280;18221;38.704;0.152;2022-12-31T13:07:09;99723.09;;;21.87;31.32
10176;BME280;18221;38.704;0.152;2022-12-31T13:10:01;99732.41;;;21.84;31.50
10176;BME280;18221;38.704;0.152;2022-12-31T13:12:42;99718.88;;;21.84;34.41
10176;BME280;18221;38.704;0.152;2022-12-31T13:15:20;99719.66;;;21.99;35.83
10176;BME280;18221;38.704;0.152;2022-12-31T13:18:03;99721.59;;;22.05;35.16
10176;BME280;18221;38.704;0.152;2022-12-31T13:20:43;99719.03;;;21.97;35.54
10176;BME280;18221;38.704;0.152;2022-12-31T13:23:24;99715.66;;;21.95;33.57
10176;BME280;18221;38.704;0.152;2022-12-31T13:26:05;99723.38;;;21.98;32.94
10176;BME280;18221;38.704;0.152;2022-12-31T13:28:38;99723.81;;;21.81;31.60
10176;BME280;18221;38.704;0.152;2022-12-31T13:31:13;99717.56;;;21.80;32.48
10176;BME280;18221;38.704;0.152;2022-12-31T13:33:47;99716.44;;;21.89;32.73
10176;BME280;18221;38.704;0.152;2022-12-31T13:36:21;99715.22;;;21.92;32.71
10176;BME280;18221;38.704;0.152;2022-12-31T13:38:53;99709.84;;;21.98;32.23
10176;BME280;18221;38.704;0.152;2022-12-31T13:41:29;99715.41;;;21.90;31.75
10176;BME280;18221;38.704;0.152;2022-12-31T13:44:15;99719.66;;;21.99;32.42
10176;BME280;18221;38.704;0.152;2022-12-31T13:46:50;99714.38;;;21.91;32.87
10176;BME280;18221;38.704;0.152;2022-12-31T13:49:25;99711.53;;;21.99;32.33
10176;BME280;18221;38.704;0.152;2022-12-31T13:52:01;99714.63;;;21.96;32.56
10176;BME280;18221;38.704;0.152;2022-12-31T13:54:37;99714.59;;;21.90;33.62
10176;BME280;18221;38.704;0.152;2022-12-31T13:57:25;99722.41;;;22.06;33.60
10176;BME280;18221;38.704;0.152;2022-12-31T14:00:03;99726.31;;;22.03;32.75
10176;BME280;18221;38.704;0.152;2022-12-31T14:02:41;99730.25;;;22.01;32.23
10176;BME280;18221;38.704;0.152;2022-12-31T14:05:21;99716.50;;;21.96;31.92
10176;BME280;18221;38.704;0.152;2022-12-31T14:07:53;99723.13;;;21.93;32.52
10176;BME280;18221;38.704;0.152;2022-12-31T14:10:38;99725.41;;;21.90;33.54
10176;BME280;18221;38.704;0.152;2022-12-31T14:13:33;99727.53;;;21.80;32.98
10176;BME280;18221;38.704;0.152;2022-12-31T14:16:14;99730.72;;;21.62;32.14
10176;BME280;18221;38.704;0.152;2022-12-31T14:18:55;99736.44;;;21.52;32.93
10176;BME280;18221;38.704;0.152;2022-12-31T14:21:35;99735.00;;;21.35;31.32
10176;BME280;18221;38.704;0.152;2022-12-31T14:24:13;99731.91;;;21.38;31.73